Lyndonville, VT

6:22 AM EDT on August 28, 2016 (GMT -0400)
Lyndonville

Weather History for KCDA - April, 2014

Change the Weather History Date:

Thursday, April 24, 2014

  Actual Average (K1V4) Record (K1V4)
Temperature  
Mean Temperature 40 °F 48 °F  
Max Temperature 46 °F 61 °F 81 °F (2001)
Min Temperature 33 °F 36 °F 21 °F (1930)
Degree Days  
Heating Degree Days 26 17  
Month to date heating degree days 526  
Since 1 July heating degree days 7326  
Cooling Degree Days 0 0  
Month to date cooling degree days 0  
Year to date cooling degree days 0  
Moisture  
Dew Point 24 °F    
Average Humidity 53    
Maximum Humidity 75    
Minimum Humidity 42    
Precipitation  
Precipitation 0.00 in 0.10 in 1.29 in (1974)
Month to date precipitation 2.26  
Year to date precipitation 9.45  
Sea Level Pressure  
Sea Level Pressure 29.81 in    
Wind  
Wind Speed 15 mph (NW)    
Max Wind Speed 21 mph    
Max Gust Speed 32 mph    
Visibility 10 miles    
Events Rain , Snow    
T = Trace of Precipitation, MM = Missing Value Source: NWS Daily Summary

Daily Weather History Graph

Daily Weather History Graph

Search for Another Location

Airport or City:

Trip Planner

Search our weather history database for the weather conditions in past years. The results will help you decide how hot, cold, wet, or windy it might be!

Date:

Astronomy

Apr. 24, 2014 Rise Set
Actual Time 5:49 AM EDT 7:44 PM EDT
Civil Twilight 5:17 AM EDT 8:15 PM EDT
Nautical Twilight 4:39 AM EDT 8:53 PM EDT
Astronomical Twilight 3:57 AM EDT 9:35 PM EDT
Moon 3:10 AM EDT (4/24) 2:44 PM EDT (4/24)
Length of Visible Light 14h 57m
Length of Day
13h 54m
Waning Crescent, 24% of the Moon is Illuminated
Apr 24
Waning Crescent
Apr 29
New
May 6
First Quarter
May 14
Full
May 21
Last Quarter

Hourly Weather History & Observations

Time (EDT) Temp. Windchill Dew Point Humidity Pressure Visibility Wind Dir Wind Speed Gust Speed Precip Events Conditions
12:15 AM 37.0 °F 27.7 °F 29.7 °F 75% 29.69 in 10.0 mi NW 16.1 mph 26.5 mph N/A Rain Light Rain
12:35 AM 36.9 °F 28.2 °F 29.5 °F 75% 29.69 in 10.0 mi WNW 13.8 mph 23.0 mph N/A Snow Light Snow
12:55 AM 37.0 °F 27.7 °F 27.0 °F 67% 29.70 in 10.0 mi NW 16.1 mph 29.9 mph N/A Snow Light Snow
1:15 AM 36.9 °F 27.5 °F 26.4 °F 66% 29.70 in 10.0 mi NW 16.1 mph 21.9 mph N/A   Overcast
1:35 AM 37.0 °F 28.1 °F 25.5 °F 63% 29.69 in 10.0 mi NW 15.0 mph 23.0 mph N/A   Overcast
1:55 AM 36.9 °F 27.5 °F 25.2 °F 63% 29.69 in 10.0 mi WNW 16.1 mph 24.2 mph N/A   Overcast
2:15 AM 36.9 °F 27.5 °F 23.7 °F 59% 29.69 in 10.0 mi NW 16.1 mph 32.2 mph N/A   Overcast
2:35 AM 36.9 °F 27.1 °F 23.2 °F 58% 29.70 in 10.0 mi NW 17.3 mph 28.8 mph N/A   Overcast
2:55 AM 36.7 °F 26.0 °F 23.0 °F 58% 29.70 in 10.0 mi NW 20.7 mph 29.9 mph N/A   Overcast
3:15 AM 36.1 °F 26.9 °F 22.5 °F 58% 29.71 in 10.0 mi NW 15.0 mph 25.3 mph N/A   Overcast
3:35 AM 35.6 °F 25.5 °F 21.9 °F 58% 29.70 in 10.0 mi NW 17.3 mph 28.8 mph N/A   Mostly Cloudy
3:55 AM 35.1 °F 24.8 °F 21.7 °F 58% 29.71 in 10.0 mi NW 17.3 mph 26.5 mph N/A   Mostly Cloudy
4:15 AM 34.7 °F 25.5 °F 21.7 °F 59% 29.70 in 10.0 mi NW 13.8 mph 24.2 mph N/A   Mostly Cloudy
4:35 AM 33.6 °F 21.9 °F 21.7 °F 62% 29.70 in 10.0 mi NW 20.7 mph 26.5 mph N/A   Scattered Clouds
4:55 AM 33.8 °F 22.8 °F 21.2 °F 60% 29.70 in 10.0 mi WNW 18.4 mph 27.6 mph N/A   Mostly Cloudy
5:15 AM 33.8 °F 23.2 °F 20.8 °F 59% 29.70 in 10.0 mi WNW 17.3 mph 29.9 mph N/A   Mostly Cloudy
5:35 AM 33.4 °F 23.1 °F 20.8 °F 60% 29.72 in 10.0 mi NW 16.1 mph 25.3 mph N/A   Mostly Cloudy
5:55 AM 33.8 °F 22.8 °F 20.8 °F 59% 29.73 in 10.0 mi NW 18.4 mph 29.9 mph N/A   Overcast
6:15 AM 33.6 °F 23.7 °F 21.0 °F 60% 29.74 in 10.0 mi NW 15.0 mph 24.2 mph N/A   Overcast
6:35 AM 33.4 °F 22.3 °F 21.0 °F 60% 29.74 in 10.0 mi NW 18.4 mph 28.8 mph N/A   Overcast
6:55 AM 33.3 °F 22.1 °F 20.8 °F 60% 29.74 in 10.0 mi WNW 18.4 mph 29.9 mph N/A   Overcast
7:15 AM 33.3 °F 22.8 °F 20.8 °F 60% 29.74 in 10.0 mi NW 16.1 mph 32.2 mph N/A Snow Light Snow
7:35 AM 33.6 °F 24.6 °F 21.2 °F 60% 29.75 in 10.0 mi NW 12.7 mph 23.0 mph N/A   Overcast
7:55 AM 33.8 °F 22.5 °F 21.2 °F 60% 29.76 in 10.0 mi NW 19.6 mph 26.5 mph N/A   Overcast
8:15 AM 33.4 °F 22.7 °F 20.7 °F 59% 29.77 in 10.0 mi WNW 17.3 mph 26.5 mph N/A   Overcast
8:35 AM 34.0 °F 23.8 °F 21.0 °F 59% 29.77 in 10.0 mi WNW 16.1 mph 25.3 mph N/A   Overcast
8:55 AM 34.7 °F 25.1 °F 21.9 °F 60% 29.78 in 10.0 mi NW 15.0 mph 25.3 mph N/A   Overcast
9:15 AM 35.1 °F 24.8 °F 21.9 °F 59% 29.78 in 10.0 mi NW 17.3 mph 28.8 mph N/A   Overcast
9:35 AM 35.6 °F 26.2 °F 21.9 °F 58% 29.79 in 10.0 mi WNW 15.0 mph 24.2 mph N/A   Overcast
9:55 AM 36.7 °F 26.0 °F 21.9 °F 55% 29.79 in 10.0 mi WNW 20.7 mph 28.8 mph N/A   Overcast
10:15 AM 38.3 °F 30.9 °F 22.5 °F 53% 29.79 in 10.0 mi WNW 11.5 mph - N/A   Overcast
10:35 AM 38.5 °F 30.3 °F 22.3 °F 52% 29.79 in 10.0 mi WNW 13.8 mph 23.0 mph N/A   Overcast
10:55 AM 38.7 °F 28.8 °F 22.5 °F 52% 29.80 in 10.0 mi WNW 19.6 mph 28.8 mph N/A   Overcast
11:15 AM 39.6 °F 31.7 °F 22.6 °F 51% 29.81 in 10.0 mi WNW 13.8 mph 21.9 mph N/A   Overcast
11:55 AM 41.9 °F 34.0 °F 23.0 °F 47% 29.81 in 10.0 mi NW 16.1 mph 31.1 mph N/A   Overcast
12:15 PM 42.1 °F 35.7 °F 22.6 °F 46% 29.81 in 10.0 mi NW 11.5 mph 21.9 mph N/A   Overcast
12:35 PM 42.1 °F 34.9 °F 22.6 °F 46% 29.81 in 10.0 mi WNW 13.8 mph 25.3 mph N/A   Overcast
12:55 PM 40.6 °F 32.3 °F 22.3 °F 48% 29.81 in 10.0 mi WNW 16.1 mph 28.8 mph N/A   Overcast
1:15 PM 41.0 °F 32.8 °F 22.8 °F 48% 29.82 in 10.0 mi WNW 16.1 mph 27.6 mph N/A   Overcast
1:35 PM 41.5 °F 32.4 °F 22.8 °F 47% 29.82 in 10.0 mi WNW 20.7 mph 31.1 mph N/A   Overcast
1:55 PM 42.3 °F 34.1 °F 23.2 °F 47% 29.82 in 10.0 mi WNW 17.3 mph 27.6 mph N/A   Overcast
2:15 PM 42.4 °F 35.7 °F 23.2 °F 47% 29.83 in 10.0 mi WNW 12.7 mph 29.9 mph N/A   Overcast
2:35 PM 43.0 °F 35.7 °F 23.5 °F 46% 29.82 in 10.0 mi WNW 15.0 mph 27.6 mph N/A   Overcast
2:55 PM 43.0 °F 35.1 °F 23.7 °F 47% 29.82 in 10.0 mi WNW 17.3 mph 27.6 mph N/A   Overcast
3:15 PM 44.1 °F 38.6 °F 24.6 °F 46% 29.82 in 10.0 mi WNW 10.4 mph 24.2 mph N/A   Overcast
3:35 PM 44.8 °F 37.4 °F 25.0 °F 46% 29.82 in 10.0 mi NNW 17.3 mph 24.2 mph N/A   Overcast
3:55 PM 45.9 °F 38.8 °F 25.0 °F 44% 29.82 in 10.0 mi NW 17.3 mph 31.1 mph N/A   Overcast
4:15 PM 45.7 °F 38.3 °F 24.6 °F 44% 29.83 in 10.0 mi NW 18.4 mph 27.6 mph N/A   Overcast
4:35 PM 46.4 °F 39.2 °F 25.0 °F 43% 29.84 in 10.0 mi NW 18.4 mph 26.5 mph N/A   Overcast
4:55 PM 46.6 °F - 24.6 °F 42% 29.84 in 10.0 mi NW 17.3 mph 26.5 mph N/A   Overcast
5:15 PM 46.6 °F - 24.8 °F 43% 29.85 in 10.0 mi NW 17.3 mph 28.8 mph N/A   Overcast
5:35 PM 46.4 °F 39.0 °F 25.2 °F 43% 29.86 in 10.0 mi NNW 19.6 mph 26.5 mph N/A   Overcast
5:55 PM 46.0 °F 41.9 °F 25.0 °F 44% 29.87 in 10.0 mi NW 8.1 mph 24.2 mph N/A   Overcast
6:15 PM 45.7 °F 38.6 °F 24.8 °F 44% 29.87 in 10.0 mi NNW 17.3 mph 29.9 mph N/A   Overcast
6:35 PM 45.7 °F 40.6 °F 25.2 °F 45% 29.88 in 10.0 mi NNW 10.4 mph - N/A   Overcast
6:55 PM 45.7 °F 38.0 °F 25.0 °F 44% 29.89 in 10.0 mi NW 19.6 mph 26.5 mph N/A   Overcast
7:15 PM 45.7 °F 39.5 °F 24.6 °F 44% 29.90 in 10.0 mi NNW 13.8 mph 19.6 mph N/A   Overcast
7:35 PM 45.1 °F 41.4 °F 24.6 °F 45% 29.91 in 10.0 mi NNW 6.9 mph - N/A   Overcast
7:55 PM 45.0 °F 40.1 °F 24.6 °F 45% 29.91 in 10.0 mi NNW 9.2 mph 16.1 mph N/A   Overcast
8:15 PM 44.8 °F 39.9 °F 24.6 °F 45% 29.92 in 10.0 mi NNW 9.2 mph - N/A   Overcast
8:35 PM 44.6 °F 40.2 °F 24.6 °F 45% 29.93 in 10.0 mi NNW 8.1 mph - N/A   Overcast
8:55 PM 44.4 °F 39.0 °F 24.6 °F 46% 29.93 in 10.0 mi NNW 10.4 mph - N/A   Overcast
9:15 PM 43.5 °F 38.9 °F 24.8 °F 48% 29.94 in 10.0 mi NNW 8.1 mph 16.1 mph N/A   Scattered Clouds
9:35 PM 42.8 °F 37.0 °F 25.0 °F 49% 29.94 in 10.0 mi NNW 10.4 mph - N/A   Scattered Clouds
9:55 PM 42.4 °F 37.0 °F 25.2 °F 50% 29.95 in 10.0 mi NNW 9.2 mph - N/A   Scattered Clouds
10:15 PM 41.4 °F 36.2 °F 25.2 °F 53% 29.95 in 10.0 mi NNW 8.1 mph - N/A   Clear
10:35 PM 41.2 °F 35.5 °F 24.8 °F 52% 29.95 in 10.0 mi NNW 9.2 mph - N/A   Clear
10:55 PM 41.0 °F 36.4 °F 24.6 °F 52% 29.95 in 10.0 mi NNW 6.9 mph - N/A   Clear
11:15 PM 39.9 °F 36.7 °F 24.6 °F 54% 29.95 in 10.0 mi NNW 4.6 mph - N/A   Clear
11:35 PM 39.4 °F 36.1 °F 24.8 °F 56% 29.95 in 10.0 mi NW 4.6 mph - N/A   Clear
11:55 PM 39.6 °F - 24.6 °F 55% 29.95 in 10.0 mi Calm Calm - N/A   Clear